createdAt,value
2023-02-27T00:00:37.571Z,101331.52
2023-02-27T00:03:30.012Z,101331.77
2023-02-27T00:05:59.784Z,101331.43
2023-02-27T00:08:31.443Z,101335.52
2023-02-27T00:11:07.386Z,101335.41
2023-02-27T00:14:02.111Z,101336.33
2023-02-27T00:16:32.748Z,101337.85
2023-02-27T00:19:13.746Z,101337.44
2023-02-27T00:21:47.370Z,101338.05
2023-02-27T00:24:28.261Z,101335.95
2023-02-27T00:27:16.940Z,101333.38
2023-02-27T00:30:01.325Z,101334.79
2023-02-27T00:32:37.556Z,101336.98
2023-02-27T00:35:11.107Z,101339.91
2023-02-27T00:37:58.671Z,101341.90
2023-02-27T00:40:31.610Z,101341.65
2023-02-27T00:43:06.256Z,101340.91
2023-02-27T00:45:43.088Z,101343.02
2023-02-27T00:48:14.986Z,101336.70
2023-02-27T00:50:44.640Z,101340.59
2023-02-27T00:53:13.735Z,101341.84
2023-02-27T00:55:48.118Z,101339.91
2023-02-27T00:58:20.303Z,101341.58
2023-02-27T01:00:52.171Z,101341.89
2023-02-27T01:03:27.461Z,101345.90
2023-02-27T01:05:59.588Z,101343.37
2023-02-27T01:09:01.692Z,101341.74
2023-02-27T01:11:36.721Z,101344.09
2023-02-27T01:14:08.461Z,101345.75
2023-02-27T01:16:44.013Z,101341.08
2023-02-27T01:19:30.284Z,101340.28
2023-02-27T01:22:03.469Z,101344.58
2023-02-27T01:24:35.226Z,101341.17
2023-02-27T01:27:17.897Z,101339.52
2023-02-27T01:29:54.616Z,101341.98
2023-02-27T01:32:47.976Z,101344.45
2023-02-27T01:35:36.431Z,101345.19
2023-02-27T01:39:06.599Z,101345.85
2023-02-27T01:42:25.170Z,101348.31
2023-02-27T01:45:51.669Z,101352.10
2023-02-27T01:48:33.684Z,101351.50
2023-02-27T01:51:59.624Z,101354.05
2023-02-27T01:54:44.100Z,101360.64
2023-02-27T01:57:17.886Z,101359.42
2023-02-27T01:59:52.213Z,101362.77
2023-02-27T02:02:31.747Z,101359.35
2023-02-27T02:05:50.506Z,101360.92
2023-02-27T02:08:28.675Z,101359.92
2023-02-27T02:10:59.592Z,101359.25
2023-02-27T02:13:55.437Z,101365.48
2023-02-27T02:16:57.507Z,101359.81
2023-02-27T02:20:01.399Z,101358.02
2023-02-27T02:23:15.557Z,101357.83
2023-02-27T02:26:33.608Z,101357.16
2023-02-27T02:29:39.336Z,101361.33
2023-02-27T02:32:34.275Z,101363.73
2023-02-27T02:35:11.004Z,101365.70
2023-02-27T02:38:05.813Z,101364.05
2023-02-27T02:40:57.791Z,101369.88
2023-02-27T02:43:55.801Z,101373.33
2023-02-27T02:46:52.520Z,101377.52
2023-02-27T02:49:37.205Z,101379.12
2023-02-27T02:52:22.468Z,101380.70
2023-02-27T02:55:23.878Z,101388.96
2023-02-27T02:58:04.913Z,101397.54
2023-02-27T03:00:43.482Z,101398.65
2023-02-27T03:03:25.627Z,101399.36
2023-02-27T03:06:24.304Z,101399.39
2023-02-27T03:09:04.243Z,101397.91
2023-02-27T03:11:39.343Z,101401.21
2023-02-27T03:14:35.763Z,101403.20
2023-02-27T03:17:16.575Z,101403.43
2023-02-27T03:20:04.975Z,101409.21
2023-02-27T03:22:49.993Z,101411.70
2023-02-27T03:25:24.840Z,101412.63
2023-02-27T03:28:25.073Z,101415.11
2023-02-27T03:31:42.050Z,101415.11
2023-02-27T03:34:20.087Z,101416.73
2023-02-27T03:37:00.820Z,101418.52
2023-02-27T03:39:50.601Z,101418.33
2023-02-27T03:42:27.062Z,101421.40
2023-02-27T03:45:25.239Z,101423.88
2023-02-27T03:47:54.206Z,101419.20
2023-02-27T03:50:23.569Z,101423.16
2023-02-27T03:52:52.506Z,101433.16
2023-02-27T03:55:29.513Z,101435.86
2023-02-27T03:57:59.743Z,101441.33
2023-02-27T04:00:31.602Z,101443.17
2023-02-27T04:03:02.902Z,101440.64
2023-02-27T04:05:33.580Z,101439.53
2023-02-27T04:08:21.991Z,101438.05
2023-02-27T04:11:21.426Z,101443.29
2023-02-27T04:14:20.749Z,101446.71
2023-02-27T04:17:13.622Z,101454.84
2023-02-27T04:19:49.602Z,101451.50
2023-02-27T04:22:37.033Z,101455.22
2023-02-27T04:25:36.792Z,101455.42
2023-02-27T04:28:24.454Z,101452.37
2023-02-27T04:31:09.037Z,101452.36
2023-02-27T04:33:49.208Z,101457.89
2023-02-27T04:36:57.486Z,101454.12
2023-02-27T04:39:52.423Z,101453.63
2023-02-27T04:42:27.257Z,101460.40
2023-02-27T04:45:01.088Z,101462.77
2023-02-27T04:47:38.024Z,101465.15
2023-02-27T04:50:20.047Z,101467.70
2023-02-27T04:53:09.534Z,101470.95
2023-02-27T04:55:52.185Z,101469.21
2023-02-27T04:58:50.597Z,101472.54
2023-02-27T05:01:26.942Z,101475.84
2023-02-27T05:04:00.369Z,101477.02
2023-02-27T05:06:35.816Z,101477.02
2023-02-27T05:09:29.958Z,101481.16
2023-02-27T05:12:13.154Z,101487.57
2023-02-27T05:14:44.806Z,101482.54
2023-02-27T05:17:22.268Z,101484.98
2023-02-27T05:19:52.590Z,101487.88
2023-02-27T05:22:39.966Z,101487.88
2023-02-27T05:25:28.297Z,101492.84
2023-02-27T05:28:26.775Z,101490.82
2023-02-27T05:31:15.139Z,101492.70
2023-02-27T05:34:01.456Z,101489.88
2023-02-27T05:36:57.007Z,101495.14
2023-02-27T05:39:32.552Z,101502.29
2023-02-27T05:42:17.795Z,101499.48
2023-02-27T05:44:54.623Z,101502.05
2023-02-27T05:47:28.228Z,101500.95
2023-02-27T05:50:08.332Z,101506.62
2023-02-27T05:52:41.824Z,101507.63
2023-02-27T05:55:28.313Z,101510.36
2023-02-27T05:58:02.703Z,101514.52
2023-02-27T06:00:41.819Z,101522.08
2023-02-27T06:03:10.987Z,101519.30
2023-02-27T06:05:46.627Z,101522.34
2023-02-27T06:08:15.448Z,101524.38
2023-02-27T06:10:44.283Z,101521.52
2023-02-27T06:13:12.972Z,101529.68
2023-02-27T06:15:41.737Z,101534.55
2023-02-27T06:18:13.273Z,101531.13
2023-02-27T06:20:44.070Z,101528.36
2023-02-27T06:23:14.256Z,101531.23
2023-02-27T06:25:43.339Z,101533.38
2023-02-27T06:28:12.294Z,101533.02
2023-02-27T06:30:44.726Z,101533.82
2023-02-27T06:33:22.590Z,101538.77
2023-02-27T06:35:51.554Z,101535.94
2023-02-27T06:38:20.558Z,101538.55
2023-02-27T06:40:49.245Z,101542.89
2023-02-27T06:43:17.996Z,101542.63
2023-02-27T06:45:47.810Z,101545.15
2023-02-27T06:48:16.513Z,101551.73
2023-02-27T06:50:45.976Z,101550.09
2023-02-27T06:53:17.433Z,101552.95
2023-02-27T06:55:46.316Z,101552.35
2023-02-27T06:58:15.480Z,101554.73
2023-02-27T07:00:45.242Z,101557.52
2023-02-27T07:03:14.183Z,101561.00
2023-02-27T07:05:45.692Z,101561.14
2023-02-27T07:08:17.869Z,101564.95
2023-02-27T07:10:49.098Z,101569.98
2023-02-27T07:13:19.695Z,101573.92
2023-02-27T07:15:52.757Z,101576.20
2023-02-27T07:18:22.731Z,101579.85
2023-02-27T07:20:52.617Z,101584.38
2023-02-27T07:23:23.032Z,101581.86
2023-02-27T07:25:52.637Z,101581.85
2023-02-27T07:28:21.398Z,101580.73
2023-02-27T07:30:50.229Z,101586.70
2023-02-27T07:33:19.124Z,101582.46
2023-02-27T07:35:48.735Z,101583.09
2023-02-27T07:38:19.892Z,101587.35
2023-02-27T07:40:56.506Z,101592.02
2023-02-27T07:43:27.040Z,101593.84
2023-02-27T07:45:58.891Z,101592.05
2023-02-27T07:48:32.079Z,101597.17
2023-02-27T07:51:02.570Z,101599.13
2023-02-27T07:53:34.947Z,101592.62
2023-02-27T07:56:03.967Z,101597.38
2023-02-27T07:58:36.272Z,101597.95
2023-02-27T08:01:10.785Z,101600.19
2023-02-27T08:03:43.120Z,101601.49
2023-02-27T08:06:34.798Z,101601.27
2023-02-27T08:09:11.453Z,101599.60
2023-02-27T08:12:09.514Z,101608.64
2023-02-27T08:14:39.943Z,101610.08
2023-02-27T08:17:16.296Z,101606.45
2023-02-27T08:19:57.082Z,101610.52
2023-02-27T08:22:51.767Z,101615.79
2023-02-27T08:25:21.786Z,101617.42
2023-02-27T08:27:51.687Z,101621.22
2023-02-27T08:30:21.584Z,101626.70
2023-02-27T08:32:54.088Z,101631.30
2023-02-27T08:35:35.547Z,101632.11
2023-02-27T08:38:07.544Z,101637.17
2023-02-27T08:40:57.226Z,101639.49
2023-02-27T08:43:33.382Z,101642.41
2023-02-27T08:46:04.691Z,101641.64
2023-02-27T08:48:35.620Z,101641.09
2023-02-27T08:51:05.102Z,101646.10
2023-02-27T08:53:35.592Z,101650.41
2023-02-27T08:56:04.468Z,101646.08
2023-02-27T08:58:36.964Z,101648.22
2023-02-27T09:01:05.950Z,101645.39
2023-02-27T09:03:34.466Z,101640.20
2023-02-27T09:06:03.427Z,101641.32
2023-02-27T09:08:32.062Z,101642.04
2023-02-27T09:11:01.408Z,101644.48
2023-02-27T09:13:31.635Z,101651.02
2023-02-27T09:16:00.119Z,101649.31
2023-02-27T09:18:29.605Z,101648.47
2023-02-27T09:20:58.166Z,101656.66
2023-02-27T09:23:26.665Z,101659.28
2023-02-27T09:25:56.038Z,101661.80
2023-02-27T09:28:24.648Z,101657.77
2023-02-27T09:30:53.233Z,101668.48
2023-02-27T09:33:22.615Z,101672.41
2023-02-27T09:35:51.317Z,101670.83
2023-02-27T09:38:20.061Z,101671.52
2023-02-27T09:40:51.632Z,101672.88
2023-02-27T09:43:48.105Z,101675.83
2023-02-27T09:46:23.241Z,101676.49
2023-02-27T09:48:59.209Z,101678.48
2023-02-27T09:51:29.517Z,101683.42
2023-02-27T09:54:01.918Z,101687.41
2023-02-27T09:56:40.494Z,101690.20
2023-02-27T09:59:44.916Z,101685.89
2023-02-27T10:02:34.328Z,101687.55
2023-02-27T10:05:24.216Z,101693.44
2023-02-27T10:07:52.647Z,101689.23
2023-02-27T10:10:40.789Z,101694.44
2023-02-27T10:13:27.654Z,101686.86
2023-02-27T10:15:58.335Z,101690.37
2023-02-27T10:18:41.900Z,101695.47
2023-02-27T10:21:20.581Z,101697.16
2023-02-27T10:24:26.677Z,101698.52
2023-02-27T10:27:02.963Z,101699.30
2023-02-27T10:29:40.833Z,101709.60
2023-02-27T10:32:22.644Z,101705.80
2023-02-27T10:35:26.687Z,101702.55
2023-02-27T10:38:00.993Z,101709.16
2023-02-27T10:40:31.155Z,101701.77
2023-02-27T10:43:04.168Z,101702.85
2023-02-27T10:45:36.999Z,101707.50
2023-02-27T10:48:09.391Z,101707.64
2023-02-27T10:50:43.441Z,101701.08
2023-02-27T10:53:24.090Z,101703.55
2023-02-27T10:56:03.228Z,101706.54
2023-02-27T10:58:36.151Z,101704.90
2023-02-27T11:01:08.603Z,101697.61
2023-02-27T11:03:41.482Z,101699.76
2023-02-27T11:06:27.499Z,101701.74
2023-02-27T11:09:27.275Z,101701.61
2023-02-27T11:12:10.176Z,101706.43
2023-02-27T11:14:51.849Z,101703.14
2023-02-27T11:17:33.245Z,101693.31
2023-02-27T11:20:23.703Z,101696.34
2023-02-27T11:23:19.141Z,101685.38
2023-02-27T11:26:22.945Z,101688.38
2023-02-27T11:29:19.638Z,101690.58
2023-02-27T11:31:59.601Z,101692.29
2023-02-27T11:34:58.843Z,101688.76
2023-02-27T11:53:43.053Z,101689.89
2023-02-27T12:05:48.145Z,101685.11
2023-02-27T12:16:45.880Z,101695.66
2023-02-27T12:19:30.229Z,101701.77
2023-02-27T12:22:04.932Z,101702.28
2023-02-27T12:25:02.555Z,101700.89
2023-02-27T12:28:13.381Z,101700.77
2023-02-27T12:31:52.822Z,101699.27
2023-02-27T12:34:30.817Z,101701.44
2023-02-27T12:37:26.782Z,101702.81
2023-02-27T12:40:10.660Z,101706.05
2023-02-27T12:43:28.945Z,101700.98
2023-02-27T12:46:17.717Z,101701.91
2023-02-27T12:49:11.746Z,101697.25
2023-02-27T12:51:54.664Z,101700.35
2023-02-27T12:54:39.794Z,101703.46
2023-02-27T12:57:08.515Z,101695.67
2023-02-27T13:00:08.995Z,101698.51
2023-02-27T13:02:56.579Z,101701.02
2023-02-27T13:05:27.995Z,101700.77
2023-02-27T13:08:17.059Z,101698.75
2023-02-27T13:11:09.564Z,101697.94
2023-02-27T13:13:49.108Z,101695.77
2023-02-27T13:16:27.833Z,101699.52
2023-02-27T13:19:25.533Z,101700.48
2023-02-27T13:22:16.647Z,101701.18
2023-02-27T13:24:58.973Z,101699.08
2023-02-27T13:27:40.946Z,101700.58
2023-02-27T13:30:23.325Z,101697.42
2023-02-27T13:33:08.733Z,101694.19
2023-02-27T13:36:26.753Z,101698.05
2023-02-27T13:39:50.265Z,101699.43
2023-02-27T14:16:20.781Z,101731.01
2023-02-27T14:19:38.506Z,101728.82
2023-02-27T14:23:48.242Z,101729.67
2023-02-27T14:35:47.077Z,101735.37
2023-02-27T14:38:36.593Z,101738.36
2023-02-27T14:41:46.614Z,101739.35
2023-02-27T14:45:27.951Z,101734.54
2023-02-27T14:48:16.467Z,101739.47
2023-02-27T14:56:10.870Z,101742.56
2023-02-27T14:59:59.635Z,101751.36
2023-02-27T15:04:10.391Z,101758.13
2023-02-27T15:08:11.913Z,101758.10
2023-02-27T15:11:31.683Z,101760.87
2023-02-27T15:15:05.965Z,101761.96
2023-02-27T15:18:37.670Z,101759.21
2023-02-27T15:21:21.832Z,101764.89
2023-02-27T15:24:57.702Z,101764.30
2023-02-27T15:28:25.611Z,101775.21
2023-02-27T15:31:55.655Z,101776.34
2023-02-27T15:34:40.385Z,101778.31
2023-02-27T15:37:31.096Z,101779.19
2023-02-27T15:40:30.404Z,101785.02
2023-02-27T15:43:14.254Z,101785.67
2023-02-27T15:45:55.807Z,101791.27
2023-02-27T15:48:38.003Z,101789.53
2023-02-27T15:51:14.507Z,101793.83
2023-02-27T15:54:03.883Z,101797.93
2023-02-27T15:56:40.674Z,101797.88
2023-02-27T15:59:31.642Z,101801.42
2023-02-27T16:02:08.436Z,101803.86
2023-02-27T16:04:49.531Z,101805.92
2023-02-27T16:07:27.791Z,101805.55
2023-02-27T16:10:29.698Z,101808.79
2023-02-27T16:13:22.795Z,101810.84
2023-02-27T16:16:25.143Z,101817.33
2023-02-27T16:19:02.923Z,101819.63
2023-02-27T16:22:07.617Z,101817.96
2023-02-27T16:24:44.611Z,101826.11
2023-02-27T16:27:27.404Z,101826.35
2023-02-27T16:30:12.652Z,101828.46
2023-02-27T16:33:04.486Z,101831.47
2023-02-27T16:35:39.811Z,101833.19
2023-02-27T16:38:18.901Z,101834.86
2023-02-27T16:40:53.712Z,101837.80
2023-02-27T16:43:27.027Z,101843.52
2023-02-27T16:46:01.793Z,101846.19
2023-02-27T16:48:34.138Z,101852.40
2023-02-27T16:51:10.471Z,101854.38
2023-02-27T16:53:57.381Z,101858.27
2023-02-27T16:56:38.012Z,101860.69
2023-02-27T16:59:20.575Z,101869.05
2023-02-27T17:01:55.074Z,101868.23
2023-02-27T17:04:29.913Z,101866.61
2023-02-27T17:07:06.667Z,101872.11
2023-02-27T17:09:38.284Z,101876.60
2023-02-27T17:12:11.505Z,101874.42
2023-02-27T17:14:41.678Z,101877.43
2023-02-27T17:17:16.098Z,101881.70
2023-02-27T17:19:47.812Z,101883.67
2023-02-27T17:22:17.487Z,101885.23
2023-02-27T17:24:49.289Z,101885.42
2023-02-27T17:27:28.894Z,101883.15
2023-02-27T17:30:08.532Z,101886.92
2023-02-27T17:32:39.300Z,101887.61
2023-02-27T17:35:12.065Z,101888.92
2023-02-27T17:37:42.590Z,101892.62
2023-02-27T17:40:12.636Z,101895.46
2023-02-27T17:42:45.744Z,101896.03
2023-02-27T17:45:17.084Z,101895.88
2023-02-27T17:47:53.910Z,101899.08
2023-02-27T17:50:24.780Z,101900.62
2023-02-27T17:52:57.027Z,101897.97
2023-02-27T17:55:26.683Z,101900.70
2023-02-27T17:58:01.672Z,101900.30
2023-02-27T18:00:33.523Z,101903.44
2023-02-27T18:03:04.384Z,101904.65
2023-02-27T18:05:34.505Z,101905.09
2023-02-27T18:08:04.288Z,101906.53
2023-02-27T18:10:33.242Z,101909.63
2023-02-27T18:13:04.650Z,101908.73
2023-02-27T18:15:35.506Z,101911.55
2023-02-27T18:18:05.286Z,101904.98
2023-02-27T18:20:36.002Z,101904.34
2023-02-27T18:23:05.545Z,101909.08
2023-02-27T18:25:35.036Z,101912.13
2023-02-27T18:28:08.769Z,101909.93
2023-02-27T18:30:40.209Z,101912.01
2023-02-27T18:33:09.947Z,101912.38
2023-02-27T18:35:39.267Z,101913.45
2023-02-27T18:38:09.474Z,101914.75
2023-02-27T18:40:39.313Z,101914.31
2023-02-27T18:43:08.627Z,101917.38
2023-02-27T18:45:39.875Z,101916.62
2023-02-27T18:48:09.873Z,101915.78
2023-02-27T18:50:41.104Z,101914.18
2023-02-27T18:53:11.342Z,101919.90
2023-02-27T18:55:41.816Z,101920.13
2023-02-27T18:58:10.878Z,101919.29
2023-02-27T19:00:42.890Z,101916.48
2023-02-27T19:03:12.693Z,101916.91
2023-02-27T19:05:49.616Z,101919.30
2023-02-27T19:08:18.815Z,101917.05
2023-02-27T19:10:53.912Z,101915.88
2023-02-27T19:13:23.950Z,101915.17
2023-02-27T19:15:54.886Z,101918.19
2023-02-27T19:18:24.356Z,101917.64
2023-02-27T19:20:55.312Z,101914.79
2023-02-27T19:23:25.640Z,101917.48
2023-02-27T19:26:01.641Z,101922.14
2023-02-27T19:28:31.271Z,101923.94
2023-02-27T19:31:09.839Z,101923.20
2023-02-27T19:33:39.738Z,101928.57
2023-02-27T19:36:15.665Z,101927.38
2023-02-27T19:38:49.134Z,101926.79
2023-02-27T19:41:21.039Z,101921.52
2023-02-27T19:43:51.476Z,101924.27
2023-02-27T19:46:28.797Z,101927.83
2023-02-27T19:49:02.501Z,101924.13
2023-02-27T19:51:34.151Z,101934.45
2023-02-27T19:54:05.253Z,101930.45
2023-02-27T19:56:38.097Z,101933.48
2023-02-27T19:59:13.976Z,101930.88
2023-02-27T20:01:45.053Z,101930.21
2023-02-27T20:04:14.505Z,101930.39
2023-02-27T20:06:46.786Z,101931.17
2023-02-27T20:09:20.685Z,101932.44
2023-02-27T20:11:56.578Z,101935.50
2023-02-27T20:14:25.900Z,101934.48
2023-02-27T20:16:57.066Z,101938.00
2023-02-27T20:19:28.155Z,101941.48
2023-02-27T20:21:57.838Z,101937.30
2023-02-27T20:24:27.787Z,101939.86
2023-02-27T20:26:59.132Z,101936.59
2023-02-27T20:29:28.907Z,101942.91
2023-02-27T20:31:58.473Z,101940.73
2023-02-27T20:34:27.523Z,101940.85
2023-02-27T20:36:58.621Z,101942.33
2023-02-27T20:39:29.019Z,101945.27
2023-02-27T20:42:00.970Z,101945.66
2023-02-27T20:44:30.147Z,101946.06
2023-02-27T20:46:58.843Z,101950.94
2023-02-27T20:49:27.678Z,101954.46
2023-02-27T20:51:58.952Z,101954.41
2023-02-27T20:54:28.037Z,101956.22
2023-02-27T20:56:58.150Z,101959.46
2023-02-27T20:59:27.070Z,101962.56
2023-02-27T21:01:56.055Z,101957.74
2023-02-27T21:04:42.675Z,101961.60
2023-02-27T21:07:21.593Z,101963.04
2023-02-27T21:09:51.188Z,101963.71
2023-02-27T21:12:21.342Z,101963.02
2023-02-27T21:14:50.177Z,101966.20
2023-02-27T21:17:19.121Z,101965.17
2023-02-27T21:19:48.065Z,101963.00
2023-02-27T21:22:17.448Z,101966.90
2023-02-27T21:24:50.198Z,101968.89
2023-02-27T21:27:21.592Z,101970.17
2023-02-27T21:29:51.520Z,101974.25
2023-02-27T21:32:20.182Z,101975.89
2023-02-27T21:34:48.818Z,101977.11
2023-02-27T21:37:18.308Z,101979.61
2023-02-27T21:39:52.584Z,101978.91
2023-02-27T21:42:21.280Z,101978.98
2023-02-27T21:44:50.612Z,101981.10
2023-02-27T21:47:21.355Z,101988.33
2023-02-27T21:49:51.687Z,101989.38
2023-02-27T21:52:21.644Z,101991.95
2023-02-27T21:54:50.837Z,101995.05
2023-02-27T21:57:22.051Z,101993.33
2023-02-27T21:59:50.801Z,101994.51
2023-02-27T22:02:19.633Z,101996.91
2023-02-27T22:04:48.499Z,101997.38
2023-02-27T22:07:18.178Z,102000.41
2023-02-27T22:09:50.794Z,101995.88
2023-02-27T22:12:19.458Z,101995.66
2023-02-27T22:14:49.077Z,101994.84
2023-02-27T22:17:18.265Z,101994.17
2023-02-27T22:19:48.552Z,101997.08
2023-02-27T22:22:17.334Z,101998.77
2023-02-27T22:24:47.612Z,101999.55
2023-02-27T22:27:17.184Z,102001.13
2023-02-27T22:29:45.898Z,102004.25
2023-02-27T22:32:14.760Z,102004.10
2023-02-27T22:34:43.703Z,102004.39
2023-02-27T22:37:14.056Z,102001.58
2023-02-27T22:39:43.238Z,102004.23
2023-02-27T22:42:12.162Z,102002.77
2023-02-27T22:44:40.970Z,102005.07
2023-02-27T22:47:10.877Z,102008.60
2023-02-27T22:49:40.100Z,102010.35
2023-02-27T22:52:09.187Z,102009.05
2023-02-27T22:54:39.914Z,102012.22
2023-02-27T22:57:09.636Z,102016.67
2023-02-27T22:59:38.415Z,102015.23
2023-02-27T23:02:08.215Z,102017.80
2023-02-27T23:04:36.940Z,102017.67
2023-02-27T23:07:06.457Z,102017.58
2023-02-27T23:09:35.340Z,102017.52
2023-02-27T23:12:04.692Z,102017.48
2023-02-27T23:14:34.771Z,102015.73
2023-02-27T23:17:03.624Z,102022.73
2023-02-27T23:19:33.419Z,102021.35
2023-02-27T23:22:02.310Z,102022.33
2023-02-27T23:24:31.726Z,102022.30
2023-02-27T23:27:05.605Z,102028.48
2023-02-27T23:29:39.846Z,102027.99
2023-02-27T23:32:09.757Z,102028.98
2023-02-27T23:34:49.009Z,102026.02
2023-02-27T23:37:19.176Z,102028.65
2023-02-27T23:39:47.967Z,102032.21
2023-02-27T23:42:18.440Z,102035.74
2023-02-27T23:45:05.597Z,102035.39
2023-02-27T23:47:44.250Z,102036.52
2023-02-27T23:50:13.391Z,102037.86
2023-02-27T23:52:42.534Z,102032.52
2023-02-27T23:55:11.313Z,102038.86
2023-02-27T23:57:40.907Z,102032.91
